sensor_id;sensor_type;location;lat;lon;timestamp;P1;durP1;ratioP1;P2;durP2;ratioP2
10651;SDS011;5374;42.742;23.266;2022-07-22T00:00:27;6.07;;;4.50;;
10651;SDS011;5374;42.742;23.266;2022-07-22T00:03:14;5.40;;;4.10;;
10651;SDS011;5374;42.742;23.266;2022-07-22T00:06:02;6.83;;;4.30;;
10651;SDS011;5374;42.742;23.266;2022-07-22T00:08:50;5.63;;;4.13;;
10651;SDS011;5374;42.742;23.266;2022-07-22T00:11:37;8.93;;;4.40;;
10651;SDS011;5374;42.742;23.266;2022-07-22T00:14:24;5.20;;;4.20;;
10651;SDS011;5374;42.742;23.266;2022-07-22T00:17:12;5.20;;;4.27;;
10651;SDS011;5374;42.742;23.266;2022-07-22T00:19:59;6.30;;;4.30;;
10651;SDS011;5374;42.742;23.266;2022-07-22T00:22:47;4.77;;;4.10;;
10651;SDS011;5374;42.742;23.266;2022-07-22T00:25:35;5.90;;;4.20;;
10651;SDS011;5374;42.742;23.266;2022-07-22T00:28:22;5.50;;;3.87;;
10651;SDS011;5374;42.742;23.266;2022-07-22T00:31:09;4.23;;;3.63;;
10651;SDS011;5374;42.742;23.266;2022-07-22T00:33:56;8.50;;;4.80;;
10651;SDS011;5374;42.742;23.266;2022-07-22T00:36:44;4.70;;;3.70;;
10651;SDS011;5374;42.742;23.266;2022-07-22T00:39:33;5.00;;;4.00;;
10651;SDS011;5374;42.742;23.266;2022-07-22T00:42:20;5.53;;;4.30;;
10651;SDS011;5374;42.742;23.266;2022-07-22T00:45:08;6.67;;;4.30;;
10651;SDS011;5374;42.742;23.266;2022-07-22T00:47:56;4.87;;;4.10;;
10651;SDS011;5374;42.742;23.266;2022-07-22T00:50:43;6.80;;;4.47;;
10651;SDS011;5374;42.742;23.266;2022-07-22T00:53:31;6.73;;;4.10;;
10651;SDS011;5374;42.742;23.266;2022-07-22T00:56:20;6.70;;;4.33;;
10651;SDS011;5374;42.742;23.266;2022-07-22T00:59:09;8.47;;;4.30;;
10651;SDS011;5374;42.742;23.266;2022-07-22T01:01:57;7.27;;;5.57;;
10651;SDS011;5374;42.742;23.266;2022-07-22T01:04:44;8.77;;;5.87;;
10651;SDS011;5374;42.742;23.266;2022-07-22T01:07:32;7.87;;;5.30;;
10651;SDS011;5374;42.742;23.266;2022-07-22T01:10:19;6.03;;;5.10;;
10651;SDS011;5374;42.742;23.266;2022-07-22T01:13:08;7.50;;;5.17;;
10651;SDS011;5374;42.742;23.266;2022-07-22T01:15:55;7.77;;;4.70;;
10651;SDS011;5374;42.742;23.266;2022-07-22T01:18:42;7.50;;;5.57;;
10651;SDS011;5374;42.742;23.266;2022-07-22T01:21:32;7.67;;;5.07;;
10651;SDS011;5374;42.742;23.266;2022-07-22T01:24:19;7.43;;;5.23;;
10651;SDS011;5374;42.742;23.266;2022-07-22T01:27:07;9.30;;;5.40;;
10651;SDS011;5374;42.742;23.266;2022-07-22T01:29:54;7.30;;;5.23;;
10651;SDS011;5374;42.742;23.266;2022-07-22T01:32:41;6.30;;;4.83;;
10651;SDS011;5374;42.742;23.266;2022-07-22T01:35:28;7.30;;;5.27;;
10651;SDS011;5374;42.742;23.266;2022-07-22T01:38:17;6.37;;;4.90;;
10651;SDS011;5374;42.742;23.266;2022-07-22T01:41:05;10.80;;;6.40;;
10651;SDS011;5374;42.742;23.266;2022-07-22T01:43:52;8.90;;;5.73;;
10651;SDS011;5374;42.742;23.266;2022-07-22T01:46:39;8.53;;;5.60;;
10651;SDS011;5374;42.742;23.266;2022-07-22T01:49:26;8.00;;;5.50;;
10651;SDS011;5374;42.742;23.266;2022-07-22T01:52:14;8.90;;;5.90;;
10651;SDS011;5374;42.742;23.266;2022-07-22T01:55:03;8.73;;;5.87;;
10651;SDS011;5374;42.742;23.266;2022-07-22T01:57:51;6.43;;;5.57;;
10651;SDS011;5374;42.742;23.266;2022-07-22T02:00:38;7.00;;;5.30;;
10651;SDS011;5374;42.742;23.266;2022-07-22T02:03:26;6.27;;;5.60;;
10651;SDS011;5374;42.742;23.266;2022-07-22T02:06:13;7.47;;;5.40;;
10651;SDS011;5374;42.742;23.266;2022-07-22T02:09:00;6.20;;;5.03;;
10651;SDS011;5374;42.742;23.266;2022-07-22T02:11:49;7.77;;;5.03;;
10651;SDS011;5374;42.742;23.266;2022-07-22T02:14:36;6.53;;;5.10;;
10651;SDS011;5374;42.742;23.266;2022-07-22T02:17:23;6.47;;;5.03;;
10651;SDS011;5374;42.742;23.266;2022-07-22T02:20:10;7.47;;;4.90;;
10651;SDS011;5374;42.742;23.266;2022-07-22T02:22:59;5.37;;;4.83;;
10651;SDS011;5374;42.742;23.266;2022-07-22T02:25:46;9.07;;;5.27;;
10651;SDS011;5374;42.742;23.266;2022-07-22T02:28:35;6.20;;;5.20;;
10651;SDS011;5374;42.742;23.266;2022-07-22T02:31:22;6.43;;;4.87;;
10651;SDS011;5374;42.742;23.266;2022-07-22T02:34:09;5.80;;;4.73;;
10651;SDS011;5374;42.742;23.266;2022-07-22T02:36:56;7.40;;;5.13;;
10651;SDS011;5374;42.742;23.266;2022-07-22T02:39:44;9.40;;;5.20;;
10651;SDS011;5374;42.742;23.266;2022-07-22T02:42:31;8.20;;;5.33;;
10651;SDS011;5374;42.742;23.266;2022-07-22T02:45:19;8.37;;;5.77;;
10651;SDS011;5374;42.742;23.266;2022-07-22T02:48:07;6.73;;;5.10;;
10651;SDS011;5374;42.742;23.266;2022-07-22T02:50:54;7.43;;;5.27;;
10651;SDS011;5374;42.742;23.266;2022-07-22T02:53:41;7.10;;;6.07;;
10651;SDS011;5374;42.742;23.266;2022-07-22T02:56:28;10.43;;;5.60;;
10651;SDS011;5374;42.742;23.266;2022-07-22T02:59:15;10.23;;;6.17;;
10651;SDS011;5374;42.742;23.266;2022-07-22T03:02:04;5.80;;;5.20;;
10651;SDS011;5374;42.742;23.266;2022-07-22T03:04:51;7.00;;;5.60;;
10651;SDS011;5374;42.742;23.266;2022-07-22T03:07:38;8.03;;;6.10;;
10651;SDS011;5374;42.742;23.266;2022-07-22T03:10:25;8.17;;;5.60;;
10651;SDS011;5374;42.742;23.266;2022-07-22T03:13:13;8.37;;;5.80;;
10651;SDS011;5374;42.742;23.266;2022-07-22T03:16:00;6.23;;;5.40;;
10651;SDS011;5374;42.742;23.266;2022-07-22T03:18:48;8.73;;;5.70;;
10651;SDS011;5374;42.742;23.266;2022-07-22T03:21:36;10.57;;;5.70;;
10651;SDS011;5374;42.742;23.266;2022-07-22T03:24:23;9.37;;;6.70;;
10651;SDS011;5374;42.742;23.266;2022-07-22T03:27:10;11.47;;;5.80;;
10651;SDS011;5374;42.742;23.266;2022-07-22T03:29:57;7.20;;;5.63;;
10651;SDS011;5374;42.742;23.266;2022-07-22T03:32:44;8.27;;;5.30;;
10651;SDS011;5374;42.742;23.266;2022-07-22T03:35:33;10.80;;;6.27;;
10651;SDS011;5374;42.742;23.266;2022-07-22T03:38:20;11.13;;;6.13;;
10651;SDS011;5374;42.742;23.266;2022-07-22T03:41:08;12.97;;;7.17;;
10651;SDS011;5374;42.742;23.266;2022-07-22T03:43:55;10.70;;;6.27;;
10651;SDS011;5374;42.742;23.266;2022-07-22T03:46:43;9.37;;;5.83;;
10651;SDS011;5374;42.742;23.266;2022-07-22T03:49:30;7.53;;;5.30;;
10651;SDS011;5374;42.742;23.266;2022-07-22T03:52:19;10.90;;;6.10;;
10651;SDS011;5374;42.742;23.266;2022-07-22T03:55:06;7.87;;;5.53;;
10651;SDS011;5374;42.742;23.266;2022-07-22T03:57:54;8.77;;;5.73;;
10651;SDS011;5374;42.742;23.266;2022-07-22T04:00:41;7.30;;;5.73;;
10651;SDS011;5374;42.742;23.266;2022-07-22T04:03:28;10.47;;;5.60;;
10651;SDS011;5374;42.742;23.266;2022-07-22T04:06:15;9.07;;;5.53;;
10651;SDS011;5374;42.742;23.266;2022-07-22T04:09:04;8.43;;;5.27;;
10651;SDS011;5374;42.742;23.266;2022-07-22T04:11:51;10.30;;;6.20;;
10651;SDS011;5374;42.742;23.266;2022-07-22T04:14:38;6.47;;;5.03;;
10651;SDS011;5374;42.742;23.266;2022-07-22T04:17:25;6.90;;;5.50;;
10651;SDS011;5374;42.742;23.266;2022-07-22T04:20:13;7.90;;;6.17;;
10651;SDS011;5374;42.742;23.266;2022-07-22T04:23:00;6.47;;;5.20;;
10651;SDS011;5374;42.742;23.266;2022-07-22T04:25:48;9.47;;;6.27;;
10651;SDS011;5374;42.742;23.266;2022-07-22T04:28:36;7.70;;;6.20;;
10651;SDS011;5374;42.742;23.266;2022-07-22T04:31:23;8.63;;;5.03;;
10651;SDS011;5374;42.742;23.266;2022-07-22T04:34:10;6.87;;;4.90;;
10651;SDS011;5374;42.742;23.266;2022-07-22T04:36:57;6.50;;;5.80;;
10651;SDS011;5374;42.742;23.266;2022-07-22T04:39:44;7.30;;;5.53;;
10651;SDS011;5374;42.742;23.266;2022-07-22T04:42:33;8.30;;;5.47;;
10651;SDS011;5374;42.742;23.266;2022-07-22T04:45:20;9.93;;;6.17;;
10651;SDS011;5374;42.742;23.266;2022-07-22T04:48:07;8.17;;;5.93;;
10651;SDS011;5374;42.742;23.266;2022-07-22T04:50:57;9.53;;;5.53;;
10651;SDS011;5374;42.742;23.266;2022-07-22T04:53:45;9.20;;;5.60;;
10651;SDS011;5374;42.742;23.266;2022-07-22T04:56:32;8.50;;;5.30;;
10651;SDS011;5374;42.742;23.266;2022-07-22T04:59:21;10.87;;;7.60;;
10651;SDS011;5374;42.742;23.266;2022-07-22T05:02:08;7.77;;;5.77;;
10651;SDS011;5374;42.742;23.266;2022-07-22T05:04:55;11.93;;;5.90;;
10651;SDS011;5374;42.742;23.266;2022-07-22T05:07:42;7.43;;;5.50;;
10651;SDS011;5374;42.742;23.266;2022-07-22T05:10:29;10.80;;;5.27;;
10651;SDS011;5374;42.742;23.266;2022-07-22T05:13:17;9.20;;;5.77;;
10651;SDS011;5374;42.742;23.266;2022-07-22T05:16:07;7.03;;;5.33;;
10651;SDS011;5374;42.742;23.266;2022-07-22T05:18:55;8.10;;;5.53;;
10651;SDS011;5374;42.742;23.266;2022-07-22T05:21:42;6.88;;;5.45;;
10651;SDS011;5374;42.742;23.266;2022-07-22T05:24:29;6.47;;;5.15;;
10651;SDS011;5374;42.742;23.266;2022-07-22T05:27:16;7.68;;;5.35;;
10651;SDS011;5374;42.742;23.266;2022-07-22T05:30:03;8.93;;;5.97;;
10651;SDS011;5374;42.742;23.266;2022-07-22T05:32:52;7.88;;;5.75;;
10651;SDS011;5374;42.742;23.266;2022-07-22T05:35:40;9.80;;;5.50;;
10651;SDS011;5374;42.742;23.266;2022-07-22T05:38:27;10.35;;;5.93;;
10651;SDS011;5374;42.742;23.266;2022-07-22T05:41:14;9.63;;;5.40;;
10651;SDS011;5374;42.742;23.266;2022-07-22T05:44:01;8.55;;;5.50;;
10651;SDS011;5374;42.742;23.266;2022-07-22T05:46:49;10.77;;;5.78;;
10651;SDS011;5374;42.742;23.266;2022-07-22T05:49:37;10.40;;;5.85;;
10651;SDS011;5374;42.742;23.266;2022-07-22T05:52:24;7.35;;;5.38;;
10651;SDS011;5374;42.742;23.266;2022-07-22T05:55:11;8.02;;;5.50;;
10651;SDS011;5374;42.742;23.266;2022-07-22T05:57:58;9.68;;;5.40;;
10651;SDS011;5374;42.742;23.266;2022-07-22T06:00:45;7.03;;;5.45;;
10651;SDS011;5374;42.742;23.266;2022-07-22T06:03:33;8.13;;;5.65;;
10651;SDS011;5374;42.742;23.266;2022-07-22T06:06:21;6.22;;;5.10;;
10651;SDS011;5374;42.742;23.266;2022-07-22T06:09:09;7.13;;;5.45;;
10651;SDS011;5374;42.742;23.266;2022-07-22T06:11:56;6.22;;;5.00;;
10651;SDS011;5374;42.742;23.266;2022-07-22T06:14:43;8.50;;;5.50;;
10651;SDS011;5374;42.742;23.266;2022-07-22T06:17:31;7.50;;;5.50;;
10651;SDS011;5374;42.742;23.266;2022-07-22T06:20:19;7.18;;;5.07;;
10651;SDS011;5374;42.742;23.266;2022-07-22T06:23:07;7.32;;;5.47;;
10651;SDS011;5374;42.742;23.266;2022-07-22T06:25:55;9.95;;;5.63;;
10651;SDS011;5374;42.742;23.266;2022-07-22T06:28:42;7.97;;;5.72;;
10651;SDS011;5374;42.742;23.266;2022-07-22T06:31:29;8.77;;;5.18;;
10651;SDS011;5374;42.742;23.266;2022-07-22T06:34:17;6.97;;;5.30;;
10651;SDS011;5374;42.742;23.266;2022-07-22T06:37:04;8.15;;;5.22;;
10651;SDS011;5374;42.742;23.266;2022-07-22T06:39:52;6.28;;;5.65;;
10651;SDS011;5374;42.742;23.266;2022-07-22T06:42:40;7.40;;;4.88;;
10651;SDS011;5374;42.742;23.266;2022-07-22T06:45:27;7.35;;;5.75;;
10651;SDS011;5374;42.742;23.266;2022-07-22T06:48:14;6.35;;;5.13;;
10651;SDS011;5374;42.742;23.266;2022-07-22T06:51:01;10.38;;;5.45;;
10651;SDS011;5374;42.742;23.266;2022-07-22T06:53:49;7.82;;;4.63;;
10651;SDS011;5374;42.742;23.266;2022-07-22T06:56:37;6.25;;;4.50;;
10651;SDS011;5374;42.742;23.266;2022-07-22T06:59:24;6.60;;;4.70;;
10651;SDS011;5374;42.742;23.266;2022-07-22T07:02:11;5.63;;;5.03;;
10651;SDS011;5374;42.742;23.266;2022-07-22T07:04:58;9.43;;;5.38;;
10651;SDS011;5374;42.742;23.266;2022-07-22T07:07:46;7.55;;;4.35;;
10651;SDS011;5374;42.742;23.266;2022-07-22T07:10:33;6.00;;;5.35;;
10651;SDS011;5374;42.742;23.266;2022-07-22T07:13:22;5.35;;;4.72;;
10651;SDS011;5374;42.742;23.266;2022-07-22T07:16:09;7.30;;;5.85;;
10651;SDS011;5374;42.742;23.266;2022-07-22T07:18:56;7.80;;;4.90;;
10651;SDS011;5374;42.742;23.266;2022-07-22T07:21:44;7.50;;;5.05;;
10651;SDS011;5374;42.742;23.266;2022-07-22T07:24:32;6.28;;;4.63;;
10651;SDS011;5374;42.742;23.266;2022-07-22T07:27:19;6.93;;;5.70;;
10651;SDS011;5374;42.742;23.266;2022-07-22T07:30:08;6.75;;;5.20;;
10651;SDS011;5374;42.742;23.266;2022-07-22T07:32:56;8.85;;;5.03;;
10651;SDS011;5374;42.742;23.266;2022-07-22T07:35:43;9.75;;;4.90;;
10651;SDS011;5374;42.742;23.266;2022-07-22T07:38:30;13.02;;;5.32;;
10651;SDS011;5374;42.742;23.266;2022-07-22T07:41:17;7.95;;;6.82;;
10651;SDS011;5374;42.742;23.266;2022-07-22T07:44:05;8.40;;;7.00;;
10651;SDS011;5374;42.742;23.266;2022-07-22T07:46:54;6.60;;;4.53;;
10651;SDS011;5374;42.742;23.266;2022-07-22T07:49:41;9.25;;;5.53;;
10651;SDS011;5374;42.742;23.266;2022-07-22T07:52:28;10.23;;;4.63;;
10651;SDS011;5374;42.742;23.266;2022-07-22T07:55:15;5.68;;;4.15;;
10651;SDS011;5374;42.742;23.266;2022-07-22T07:58:02;5.68;;;4.38;;
10651;SDS011;5374;42.742;23.266;2022-07-22T08:00:50;7.28;;;4.38;;
10651;SDS011;5374;42.742;23.266;2022-07-22T08:03:38;5.40;;;4.25;;
10651;SDS011;5374;42.742;23.266;2022-07-22T08:06:25;5.47;;;3.47;;
10651;SDS011;5374;42.742;23.266;2022-07-22T08:09:13;4.43;;;4.03;;
10651;SDS011;5374;42.742;23.266;2022-07-22T08:12:00;4.70;;;3.90;;
10651;SDS011;5374;42.742;23.266;2022-07-22T08:14:47;8.88;;;4.53;;
10651;SDS011;5374;42.742;23.266;2022-07-22T08:17:34;5.25;;;3.80;;
10651;SDS011;5374;42.742;23.266;2022-07-22T08:20:23;6.65;;;4.50;;
10651;SDS011;5374;42.742;23.266;2022-07-22T08:23:10;7.63;;;5.07;;
10651;SDS011;5374;42.742;23.266;2022-07-22T08:25:58;6.88;;;6.03;;
10651;SDS011;5374;42.742;23.266;2022-07-22T08:28:45;4.45;;;4.05;;
10651;SDS011;5374;42.742;23.266;2022-07-22T08:31:33;6.43;;;4.65;;
10651;SDS011;5374;42.742;23.266;2022-07-22T08:34:21;4.50;;;3.95;;
10651;SDS011;5374;42.742;23.266;2022-07-22T08:37:09;4.68;;;4.20;;
10651;SDS011;5374;42.742;23.266;2022-07-22T08:39:57;4.93;;;4.10;;
10651;SDS011;5374;42.742;23.266;2022-07-22T08:42:45;4.75;;;4.35;;
10651;SDS011;5374;42.742;23.266;2022-07-22T08:45:33;6.68;;;4.60;;
10651;SDS011;5374;42.742;23.266;2022-07-22T08:48:21;4.97;;;4.03;;
10651;SDS011;5374;42.742;23.266;2022-07-22T08:51:08;5.18;;;4.70;;
10651;SDS011;5374;42.742;23.266;2022-07-22T08:53:56;5.55;;;3.92;;
10651;SDS011;5374;42.742;23.266;2022-07-22T08:56:46;4.35;;;3.95;;
10651;SDS011;5374;42.742;23.266;2022-07-22T08:59:41;4.65;;;4.22;;
10651;SDS011;5374;42.742;23.266;2022-07-22T09:02:36;4.75;;;4.18;;
10651;SDS011;5374;42.742;23.266;2022-07-22T09:05:24;6.78;;;4.18;;
10651;SDS011;5374;42.742;23.266;2022-07-22T09:08:20;6.95;;;3.95;;
10651;SDS011;5374;42.742;23.266;2022-07-22T09:11:16;7.57;;;4.10;;
10651;SDS011;5374;42.742;23.266;2022-07-22T09:14:03;5.78;;;3.95;;
10651;SDS011;5374;42.742;23.266;2022-07-22T09:16:50;4.57;;;3.75;;
10651;SDS011;5374;42.742;23.266;2022-07-22T09:19:37;6.35;;;4.07;;
10651;SDS011;5374;42.742;23.266;2022-07-22T09:22:32;6.20;;;4.57;;
10651;SDS011;5374;42.742;23.266;2022-07-22T09:25:25;4.30;;;3.83;;
10651;SDS011;5374;42.742;23.266;2022-07-22T09:28:16;4.72;;;4.05;;
10651;SDS011;5374;42.742;23.266;2022-07-22T09:31:04;4.32;;;3.80;;
10651;SDS011;5374;42.742;23.266;2022-07-22T09:33:52;4.47;;;3.95;;
10651;SDS011;5374;42.742;23.266;2022-07-22T09:36:52;4.90;;;3.95;;
10651;SDS011;5374;42.742;23.266;2022-07-22T09:39:40;5.50;;;3.97;;
10651;SDS011;5374;42.742;23.266;2022-07-22T09:42:27;5.50;;;3.83;;
10651;SDS011;5374;42.742;23.266;2022-07-22T09:45:32;5.25;;;3.90;;
10651;SDS011;5374;42.742;23.266;2022-07-22T09:48:21;6.07;;;3.97;;
10651;SDS011;5374;42.742;23.266;2022-07-22T09:51:08;4.82;;;4.25;;
10651;SDS011;5374;42.742;23.266;2022-07-22T09:53:55;4.65;;;4.20;;
10651;SDS011;5374;42.742;23.266;2022-07-22T09:56:42;3.90;;;3.42;;
10651;SDS011;5374;42.742;23.266;2022-07-22T09:59:31;4.70;;;3.70;;
10651;SDS011;5374;42.742;23.266;2022-07-22T10:02:20;6.35;;;3.72;;
10651;SDS011;5374;42.742;23.266;2022-07-22T10:05:08;5.03;;;4.05;;
10651;SDS011;5374;42.742;23.266;2022-07-22T10:07:57;6.30;;;3.78;;
10651;SDS011;5374;42.742;23.266;2022-07-22T10:10:46;6.68;;;4.05;;
10651;SDS011;5374;42.742;23.266;2022-07-22T10:13:34;4.90;;;4.20;;
10651;SDS011;5374;42.742;23.266;2022-07-22T10:16:24;4.30;;;3.90;;
10651;SDS011;5374;42.742;23.266;2022-07-22T10:19:13;4.35;;;3.83;;
10651;SDS011;5374;42.742;23.266;2022-07-22T10:22:01;4.95;;;3.80;;
10651;SDS011;5374;42.742;23.266;2022-07-22T10:25:00;4.20;;;3.80;;
10651;SDS011;5374;42.742;23.266;2022-07-22T10:27:48;4.70;;;3.80;;
10651;SDS011;5374;42.742;23.266;2022-07-22T10:30:37;4.00;;;3.58;;
10651;SDS011;5374;42.742;23.266;2022-07-22T10:33:29;8.75;;;3.88;;
10651;SDS011;5374;42.742;23.266;2022-07-22T10:36:30;4.05;;;3.65;;
10651;SDS011;5374;42.742;23.266;2022-07-22T10:39:18;7.90;;;4.38;;
10651;SDS011;5374;42.742;23.266;2022-07-22T10:42:06;4.35;;;3.75;;
10651;SDS011;5374;42.742;23.266;2022-07-22T10:44:53;4.85;;;4.00;;
10651;SDS011;5374;42.742;23.266;2022-07-22T10:47:53;5.32;;;4.15;;
10651;SDS011;5374;42.742;23.266;2022-07-22T10:50:47;7.00;;;4.38;;
10651;SDS011;5374;42.742;23.266;2022-07-22T10:53:43;5.80;;;3.72;;
10651;SDS011;5374;42.742;23.266;2022-07-22T10:56:32;3.75;;;3.40;;
10651;SDS011;5374;42.742;23.266;2022-07-22T10:59:20;4.25;;;3.85;;
10651;SDS011;5374;42.742;23.266;2022-07-22T11:02:09;5.85;;;3.47;;
10651;SDS011;5374;42.742;23.266;2022-07-22T11:04:59;3.50;;;3.20;;
10651;SDS011;5374;42.742;23.266;2022-07-22T11:07:46;5.40;;;3.42;;
10651;SDS011;5374;42.742;23.266;2022-07-22T11:10:35;5.70;;;3.83;;
10651;SDS011;5374;42.742;23.266;2022-07-22T11:13:32;4.28;;;3.60;;
10651;SDS011;5374;42.742;23.266;2022-07-22T11:16:20;4.53;;;3.60;;
10651;SDS011;5374;42.742;23.266;2022-07-22T11:19:09;6.18;;;4.07;;
10651;SDS011;5374;42.742;23.266;2022-07-22T11:21:57;4.50;;;3.58;;
10651;SDS011;5374;42.742;23.266;2022-07-22T11:24:48;3.97;;;3.50;;
10651;SDS011;5374;42.742;23.266;2022-07-22T11:27:37;9.20;;;5.32;;
10651;SDS011;5374;42.742;23.266;2022-07-22T11:30:24;4.90;;;3.88;;
10651;SDS011;5374;42.742;23.266;2022-07-22T11:33:12;6.25;;;4.70;;
10651;SDS011;5374;42.742;23.266;2022-07-22T11:36:03;9.52;;;4.35;;
10651;SDS011;5374;42.742;23.266;2022-07-22T11:38:51;5.25;;;4.75;;
10651;SDS011;5374;42.742;23.266;2022-07-22T11:41:38;3.58;;;3.28;;
10651;SDS011;5374;42.742;23.266;2022-07-22T11:44:28;6.38;;;5.72;;
10651;SDS011;5374;42.742;23.266;2022-07-22T11:47:16;3.88;;;3.50;;
10651;SDS011;5374;42.742;23.266;2022-07-22T11:50:04;4.22;;;3.35;;
10651;SDS011;5374;42.742;23.266;2022-07-22T11:52:52;5.13;;;3.40;;
10651;SDS011;5374;42.742;23.266;2022-07-22T11:55:39;3.92;;;3.53;;
10651;SDS011;5374;42.742;23.266;2022-07-22T11:58:33;5.07;;;4.20;;
10651;SDS011;5374;42.742;23.266;2022-07-22T12:01:23;4.95;;;3.70;;
10651;SDS011;5374;42.742;23.266;2022-07-22T12:04:13;5.85;;;4.13;;
10651;SDS011;5374;42.742;23.266;2022-07-22T12:07:02;4.80;;;3.55;;
10651;SDS011;5374;42.742;23.266;2022-07-22T12:09:50;4.15;;;3.75;;
10651;SDS011;5374;42.742;23.266;2022-07-22T12:12:38;4.40;;;4.00;;
10651;SDS011;5374;42.742;23.266;2022-07-22T12:15:26;7.07;;;4.45;;
10651;SDS011;5374;42.742;23.266;2022-07-22T12:18:15;3.85;;;3.38;;
10651;SDS011;5374;42.742;23.266;2022-07-22T12:21:05;6.43;;;5.50;;
10651;SDS011;5374;42.742;23.266;2022-07-22T12:23:53;7.38;;;4.32;;
10651;SDS011;5374;42.742;23.266;2022-07-22T12:26:43;6.25;;;4.05;;
10651;SDS011;5374;42.742;23.266;2022-07-22T12:29:41;5.00;;;3.55;;
10651;SDS011;5374;42.742;23.266;2022-07-22T12:32:29;4.40;;;3.78;;
10651;SDS011;5374;42.742;23.266;2022-07-22T12:35:17;4.75;;;3.80;;
10651;SDS011;5374;42.742;23.266;2022-07-22T12:38:05;4.50;;;3.45;;
10651;SDS011;5374;42.742;23.266;2022-07-22T12:40:54;6.22;;;3.88;;
10651;SDS011;5374;42.742;23.266;2022-07-22T12:43:41;4.70;;;3.53;;
10651;SDS011;5374;42.742;23.266;2022-07-22T12:46:28;4.30;;;3.90;;
10651;SDS011;5374;42.742;23.266;2022-07-22T12:49:17;4.78;;;3.78;;
10651;SDS011;5374;42.742;23.266;2022-07-22T12:52:07;4.40;;;4.00;;
10651;SDS011;5374;42.742;23.266;2022-07-22T12:54:59;4.10;;;3.70;;
10651;SDS011;5374;42.742;23.266;2022-07-22T12:57:46;4.38;;;3.70;;
10651;SDS011;5374;42.742;23.266;2022-07-22T13:00:34;5.07;;;3.65;;
10651;SDS011;5374;42.742;23.266;2022-07-22T13:03:23;5.22;;;3.90;;
10651;SDS011;5374;42.742;23.266;2022-07-22T13:06:11;4.07;;;3.50;;
10651;SDS011;5374;42.742;23.266;2022-07-22T13:08:59;6.25;;;3.90;;
10651;SDS011;5374;42.742;23.266;2022-07-22T13:11:47;4.82;;;3.50;;
10651;SDS011;5374;42.742;23.266;2022-07-22T13:14:35;4.20;;;3.80;;
10651;SDS011;5374;42.742;23.266;2022-07-22T13:17:22;3.95;;;3.53;;
10651;SDS011;5374;42.742;23.266;2022-07-22T13:20:09;5.57;;;4.13;;
10651;SDS011;5374;42.742;23.266;2022-07-22T13:22:59;5.22;;;4.72;;
10651;SDS011;5374;42.742;23.266;2022-07-22T13:25:47;5.07;;;3.70;;
10651;SDS011;5374;42.742;23.266;2022-07-22T13:28:35;4.72;;;4.10;;
10651;SDS011;5374;42.742;23.266;2022-07-22T13:31:22;4.78;;;3.70;;
10651;SDS011;5374;42.742;23.266;2022-07-22T13:34:09;6.85;;;3.83;;
10651;SDS011;5374;42.742;23.266;2022-07-22T13:36:56;4.15;;;3.67;;
10651;SDS011;5374;42.742;23.266;2022-07-22T13:39:44;4.10;;;3.30;;
10651;SDS011;5374;42.742;23.266;2022-07-22T13:42:34;5.43;;;3.60;;
10651;SDS011;5374;42.742;23.266;2022-07-22T13:45:21;5.15;;;3.42;;
10651;SDS011;5374;42.742;23.266;2022-07-22T13:48:09;4.18;;;3.47;;
10651;SDS011;5374;42.742;23.266;2022-07-22T13:50:56;5.23;;;3.37;;
10651;SDS011;5374;42.742;23.266;2022-07-22T13:53:43;4.68;;;4.07;;
10651;SDS011;5374;42.742;23.266;2022-07-22T13:56:30;3.83;;;3.50;;
10651;SDS011;5374;42.742;23.266;2022-07-22T13:59:20;5.17;;;3.43;;
10651;SDS011;5374;42.742;23.266;2022-07-22T14:02:08;5.00;;;3.22;;
10651;SDS011;5374;42.742;23.266;2022-07-22T14:04:55;5.07;;;3.80;;
10651;SDS011;5374;42.742;23.266;2022-07-22T14:07:43;4.07;;;3.30;;
10651;SDS011;5374;42.742;23.266;2022-07-22T14:10:30;5.63;;;3.85;;
10651;SDS011;5374;42.742;23.266;2022-07-22T14:13:17;3.97;;;3.58;;
10651;SDS011;5374;42.742;23.266;2022-07-22T14:16:06;4.63;;;3.63;;
10651;SDS011;5374;42.742;23.266;2022-07-22T14:19:12;4.80;;;3.33;;
10651;SDS011;5374;42.742;23.266;2022-07-22T14:22:00;3.70;;;3.35;;
10651;SDS011;5374;42.742;23.266;2022-07-22T14:24:48;5.25;;;4.30;;
10651;SDS011;5374;42.742;23.266;2022-07-22T14:27:35;6.77;;;4.40;;
10651;SDS011;5374;42.742;23.266;2022-07-22T14:30:22;6.32;;;3.55;;
10651;SDS011;5374;42.742;23.266;2022-07-22T14:33:11;6.23;;;4.03;;
10651;SDS011;5374;42.742;23.266;2022-07-22T14:35:58;5.03;;;3.50;;
10651;SDS011;5374;42.742;23.266;2022-07-22T14:38:45;5.63;;;3.67;;
10651;SDS011;5374;42.742;23.266;2022-07-22T14:41:32;5.73;;;3.67;;
10651;SDS011;5374;42.742;23.266;2022-07-22T14:44:19;4.57;;;4.13;;
10651;SDS011;5374;42.742;23.266;2022-07-22T14:47:06;4.93;;;3.63;;
10651;SDS011;5374;42.742;23.266;2022-07-22T14:49:55;5.53;;;4.00;;
10651;SDS011;5374;42.742;23.266;2022-07-22T14:52:42;4.83;;;3.83;;
10651;SDS011;5374;42.742;23.266;2022-07-22T14:55:29;4.28;;;3.67;;
10651;SDS011;5374;42.742;23.266;2022-07-22T14:58:16;4.30;;;3.90;;
10651;SDS011;5374;42.742;23.266;2022-07-22T15:01:04;3.83;;;3.47;;
10651;SDS011;5374;42.742;23.266;2022-07-22T15:03:51;5.03;;;3.87;;
10651;SDS011;5374;42.742;23.266;2022-07-22T15:06:40;3.90;;;3.57;;
10651;SDS011;5374;42.742;23.266;2022-07-22T15:09:27;4.83;;;3.90;;
10651;SDS011;5374;42.742;23.266;2022-07-22T15:12:15;4.50;;;3.33;;
10651;SDS011;5374;42.742;23.266;2022-07-22T15:15:03;5.03;;;3.53;;
10651;SDS011;5374;42.742;23.266;2022-07-22T15:17:51;5.97;;;4.30;;
10651;SDS011;5374;42.742;23.266;2022-07-22T15:20:38;4.00;;;3.60;;
10651;SDS011;5374;42.742;23.266;2022-07-22T15:23:26;4.43;;;3.70;;
10651;SDS011;5374;42.742;23.266;2022-07-22T15:26:15;4.77;;;3.60;;
10651;SDS011;5374;42.742;23.266;2022-07-22T15:29:02;4.87;;;3.70;;
10651;SDS011;5374;42.742;23.266;2022-07-22T15:31:49;4.13;;;3.60;;
10651;SDS011;5374;42.742;23.266;2022-07-22T15:34:37;6.10;;;4.10;;
10651;SDS011;5374;42.742;23.266;2022-07-22T15:37:24;4.23;;;3.70;;
10651;SDS011;5374;42.742;23.266;2022-07-22T15:40:12;6.53;;;3.97;;
10651;SDS011;5374;42.742;23.266;2022-07-22T15:43:01;4.00;;;3.63;;
10651;SDS011;5374;42.742;23.266;2022-07-22T15:45:48;4.87;;;3.50;;
10651;SDS011;5374;42.742;23.266;2022-07-22T15:48:36;4.97;;;3.70;;
10651;SDS011;5374;42.742;23.266;2022-07-22T15:51:24;8.90;;;3.73;;
10651;SDS011;5374;42.742;23.266;2022-07-22T15:54:12;7.73;;;3.93;;
10651;SDS011;5374;42.742;23.266;2022-07-22T15:57:01;6.13;;;3.93;;
10651;SDS011;5374;42.742;23.266;2022-07-22T16:00:02;5.33;;;3.53;;
10651;SDS011;5374;42.742;23.266;2022-07-22T16:02:50;7.00;;;3.80;;
10651;SDS011;5374;42.742;23.266;2022-07-22T16:05:37;3.90;;;3.50;;
10651;SDS011;5374;42.742;23.266;2022-07-22T16:08:24;7.23;;;3.60;;
10651;SDS011;5374;42.742;23.266;2022-07-22T16:11:11;5.30;;;3.37;;
10651;SDS011;5374;42.742;23.266;2022-07-22T16:14:00;8.53;;;4.73;;
10651;SDS011;5374;42.742;23.266;2022-07-22T16:16:47;4.00;;;3.67;;
10651;SDS011;5374;42.742;23.266;2022-07-22T16:19:34;6.50;;;3.80;;
10651;SDS011;5374;42.742;23.266;2022-07-22T16:22:21;5.70;;;3.57;;
10651;SDS011;5374;42.742;23.266;2022-07-22T16:25:09;6.13;;;3.47;;
10651;SDS011;5374;42.742;23.266;2022-07-22T16:27:56;3.70;;;3.37;;
10651;SDS011;5374;42.742;23.266;2022-07-22T16:30:44;5.77;;;3.67;;
10651;SDS011;5374;42.742;23.266;2022-07-22T16:33:31;6.27;;;4.20;;
10651;SDS011;5374;42.742;23.266;2022-07-22T16:36:19;5.27;;;3.90;;
10651;SDS011;5374;42.742;23.266;2022-07-22T16:39:06;4.67;;;3.60;;
10651;SDS011;5374;42.742;23.266;2022-07-22T16:41:53;4.60;;;3.50;;
10651;SDS011;5374;42.742;23.266;2022-07-22T16:44:40;6.13;;;3.97;;
10651;SDS011;5374;42.742;23.266;2022-07-22T16:47:29;5.23;;;3.47;;
10651;SDS011;5374;42.742;23.266;2022-07-22T16:50:16;6.80;;;3.53;;
10651;SDS011;5374;42.742;23.266;2022-07-22T16:53:04;4.10;;;3.43;;